Time;durP1;ratioP1;P1;durP2;ratioP2;P2;SDS_P1;SDS_P2;PMS_P1;PMS_P2;Temp;Humidity;BMP_temperature;BMP_pressure;BME280_temperature;BME280_humidity;BME280_pressure;Samples;Min_cycle;Max_cycle;Signal;HPM_P1;HPM_P2
2022/01/08 00:02:27;;;;;;;;;0.00;0.00;;;;;3.19;84.73;99217.16;5089590;28;8834;-56
2022/01/08 00:04:55;;;;;;;;;1.40;1.00;;;;;3.20;84.42;99225.91;5089267;28;8829;-56
2022/01/08 00:07:22;;;;;;;;;1.00;1.00;;;;;3.19;84.10;99222.44;5091631;28;8862;-56
2022/01/08 00:09:50;;;;;;;;;3.80;2.60;;;;;3.21;84.73;99227.59;5091482;28;8870;-56
2022/01/08 00:12:18;;;;;;;;;3.00;3.00;;;;;3.23;84.49;99225.72;5089747;28;8842;-56
2022/01/08 00:14:46;;;;;;;;;0.60;0.60;;;;;3.25;84.22;99229.94;5088849;28;8842;-56
2022/01/08 00:17:14;;;;;;;;;4.00;4.00;;;;;3.26;84.15;99226.38;5090177;28;8872;-56
2022/01/08 00:19:42;;;;;;;;;0.40;0.20;;;;;3.28;84.05;99235.03;5090187;28;8834;-56
2022/01/08 00:22:11;;;;;;;;;1.00;1.00;;;;;3.30;84.03;99221.78;5089144;28;9551;-56
2022/01/08 00:24:39;;;;;;;;;1.00;1.00;;;;;3.32;84.21;99219.91;5090451;28;8956;-56
2022/01/08 00:27:07;;;;;;;;;1.00;1.00;;;;;3.33;84.31;99226.88;5089734;28;8854;-56
2022/01/08 00:29:35;;;;;;;;;3.20;3.20;;;;;3.35;84.49;99228.47;5091004;28;9688;-56
2022/01/08 00:32:02;;;;;;;;;3.00;3.00;;;;;3.38;84.13;99223.00;5049894;28;8857;-56
2022/01/08 00:34:30;;;;;;;;;0.00;0.00;;;;;3.39;83.54;99216.78;5088790;28;8858;-56
2022/01/08 00:36:58;;;;;;;;;0.80;0.60;;;;;3.40;83.74;99229.00;5090301;28;8984;-57
2022/01/08 00:39:26;;;;;;;;;1.80;1.00;;;;;3.41;83.65;99228.06;5089793;28;8962;-56
2022/01/08 00:41:54;;;;;;;;;0.00;0.00;;;;;3.40;83.50;99228.19;5090072;28;8846;-56
2022/01/08 00:44:21;;;;;;;;;1.00;1.00;;;;;3.39;84.15;99232.56;5090038;28;8935;-56
2022/01/08 00:46:49;;;;;;;;;3.40;3.20;;;;;3.37;84.07;99229.22;5089626;28;8880;-56
2022/01/08 00:49:17;;;;;;;;;1.40;1.00;;;;;3.38;84.19;99235.28;5090547;28;8842;-56
2022/01/08 00:51:44;;;;;;;;;3.40;3.20;;;;;3.35;83.74;99233.72;5091251;28;8838;-56
2022/01/08 00:54:12;;;;;;;;;4.00;4.00;;;;;3.36;84.46;99237.19;5089549;28;8860;-56
2022/01/08 00:56:40;;;;;;;;;4.40;3.00;;;;;3.34;83.94;99245.16;5089287;28;9019;-56
2022/01/08 00:59:08;;;;;;;;;1.00;1.00;;;;;3.33;84.57;99242.66;5089753;28;8972;-56
2022/01/08 01:01:36;;;;;;;;;1.40;1.40;;;;;3.33;84.52;99237.38;5088146;28;8838;-56
2022/01/08 01:04:03;;;;;;;;;4.40;4.40;;;;;3.32;83.85;99235.69;5088913;28;8850;-56
2022/01/08 01:06:31;;;;;;;;;4.00;4.00;;;;;3.31;84.04;99233.97;5090755;28;8968;-56
2022/01/08 01:08:59;;;;;;;;;4.00;4.00;;;;;3.31;84.37;99231.34;5088992;28;8862;-56
2022/01/08 01:11:27;;;;;;;;;3.00;3.00;;;;;3.29;84.28;99236.72;5090727;28;8984;-56
2022/01/08 01:13:55;;;;;;;;;3.00;3.00;;;;;3.29;83.93;99226.22;5088587;28;8846;-56
2022/01/08 01:16:23;;;;;;;;;1.80;1.80;;;;;3.30;83.97;99233.16;5089354;28;8854;-56
2022/01/08 01:18:51;;;;;;;;;3.00;3.00;;;;;3.29;83.93;99236.72;5090223;28;8872;-56
2022/01/08 01:21:19;;;;;;;;;1.40;1.00;;;;;3.27;84.06;99233.31;5088519;28;8898;-56
2022/01/08 01:23:48;;;;;;;;;1.40;1.40;;;;;3.25;84.15;99235.22;5089633;28;9487;-56
2022/01/08 01:26:21;;;;;;;;;3.20;3.20;;;;;3.24;84.26;99238.78;5088376;28;8846;-56
2022/01/08 01:28:54;;;;;;;;;1.80;1.00;;;;;3.23;84.76;99236.25;5089717;28;8846;-56
2022/01/08 01:43:07;;;;;;;;;3.00;3.00;;;;;3.16;84.74;99238.41;5090397;28;8872;-57
2022/01/08 01:48:20;;;;;;;;;1.00;0.60;;;;;3.10;84.42;99241.41;5089884;28;8838;-56
2022/01/08 01:50:48;;;;;;;;;3.40;3.20;;;;;3.08;84.66;99239.81;5089872;28;8887;-57
2022/01/08 01:53:16;;;;;;;;;4.40;3.00;;;;;3.05;84.41;99238.22;5091379;28;8860;-57
2022/01/08 01:55:43;;;;;;;;;3.00;3.00;;;;;3.03;84.64;99240.09;5090679;28;8834;-57
2022/01/08 01:58:11;;;;;;;;;4.00;3.20;;;;;3.01;84.76;99244.59;5089699;28;8854;-56
2022/01/08 02:00:39;;;;;;;;;2.60;2.60;;;;;3.01;84.60;99244.59;5089527;28;8864;-57
2022/01/08 02:03:07;;;;;;;;;4.40;3.40;;;;;3.01;84.46;99241.97;5090943;28;8858;-57
2022/01/08 02:05:35;;;;;;;;;3.00;2.20;;;;;3.02;84.90;99243.66;5090901;28;8858;-57
2022/01/08 02:08:02;;;;;;;;;4.00;3.00;;;;;3.03;84.92;99239.25;5090231;28;8854;-57
2022/01/08 02:10:30;;;;;;;;;4.00;3.00;;;;;3.00;84.95;99236.78;5089882;28;8860;-57
2022/01/08 02:12:58;;;;;;;;;1.80;1.80;;;;;2.95;85.29;99236.25;5091096;28;8830;-57
2022/01/08 02:15:26;;;;;;;;;3.80;3.00;;;;;2.90;84.97;99238.28;5090078;28;8846;-57
2022/01/08 02:17:53;;;;;;;;;4.00;3.00;;;;;2.86;85.09;99247.28;5089324;28;8842;-57
2022/01/08 02:20:21;;;;;;;;;3.40;3.40;;;;;2.83;84.57;99247.47;5090580;28;8850;-57
2022/01/08 02:22:49;;;;;;;;;3.00;3.00;;;;;2.78;85.09;99239.88;5090814;28;8834;-57
2022/01/08 02:25:17;;;;;;;;;3.00;3.00;;;;;2.76;85.53;99241.75;5090330;28;8842;-57
2022/01/08 02:27:44;;;;;;;;;3.20;3.20;;;;;2.73;85.13;99251.59;5090063;28;8852;-57
2022/01/08 02:30:12;;;;;;;;;3.60;3.00;;;;;2.72;85.28;99249.91;5091615;28;8838;-57
2022/01/08 02:32:41;;;;;;;;;2.60;2.60;;;;;2.70;85.05;99244.75;5090608;28;8863;-57
2022/01/08 02:35:10;;;;;;;;;4.80;4.40;;;;;2.69;85.36;99250.94;5090620;28;8826;-57
2022/01/08 02:37:37;;;;;;;;;5.20;4.00;;;;;2.69;85.34;99253.56;5090045;28;9897;-57
2022/01/08 02:40:07;;;;;;;;;3.60;3.40;;;;;2.68;85.46;99249.25;5091499;28;8842;-57
2022/01/08 02:42:39;;;;;;;;;3.40;1.80;;;;;2.66;85.28;99252.91;5090521;28;8854;-57
2022/01/08 02:45:07;;;;;;;;;4.80;4.80;;;;;2.62;85.43;99246.97;5089729;28;8837;-57
2022/01/08 02:47:35;;;;;;;;;4.40;4.40;;;;;2.62;84.97;99246.97;5090682;28;8825;-57
2022/01/08 02:50:03;;;;;;;;;5.60;5.20;;;;;2.62;85.00;99243.50;5091528;28;8848;-57
2022/01/08 02:52:30;;;;;;;;;8.20;3.60;;;;;2.61;85.79;99250.53;5090195;28;8838;-57
2022/01/08 02:54:58;;;;;;;;;3.40;3.40;;;;;2.58;85.66;99237.56;5092451;28;8846;-57
2022/01/08 02:57:26;;;;;;;;;6.60;6.20;;;;;2.55;85.21;99243.00;5090974;28;8927;-57
2022/01/08 02:59:53;;;;;;;;;3.60;1.80;;;;;2.54;85.67;99241.34;5094846;28;8964;-57
2022/01/08 03:02:21;;;;;;;;;5.80;5.80;;;;;2.54;85.73;99232.59;5094312;28;8857;-57
2022/01/08 03:04:49;;;;;;;;;6.00;4.00;;;;;2.51;85.62;99224.91;5095365;28;9562;-57
2022/01/08 03:07:17;;;;;;;;;4.40;4.00;;;;;2.49;85.09;99234.66;5094041;28;8887;-57
2022/01/08 03:09:50;;;;;;;;;6.80;6.80;;;;;2.47;85.52;99224.22;5094074;28;8842;-57
2022/01/08 03:12:18;;;;;;;;;7.00;4.00;;;;;2.48;85.22;99231.16;5093292;28;8884;-57
2022/01/08 03:14:46;;;;;;;;;3.80;3.80;;;;;2.46;85.92;99233.06;5094964;28;8864;-57
2022/01/08 03:17:13;;;;;;;;;4.80;4.40;;;;;2.44;85.74;99227.03;5093127;28;8830;-57
2022/01/08 03:19:41;;;;;;;;;3.00;3.00;;;;;2.43;85.77;99233.22;5094596;28;8838;-57
2022/01/08 03:22:09;;;;;;;;;7.80;7.40;;;;;2.43;85.20;99233.22;5093416;28;8860;-57
2022/01/08 03:24:37;;;;;;;;;6.00;5.20;;;;;2.43;85.24;99238.47;5094659;28;8973;-57
2022/01/08 03:27:05;;;;;;;;;8.40;6.60;;;;;2.41;85.89;99234.25;5094284;28;8865;-56
2022/01/08 03:29:32;;;;;;;;;5.60;5.60;;;;;2.39;85.55;99236.97;5094199;28;8872;-57
2022/01/08 03:32:00;;;;;;;;;5.00;4.80;;;;;2.37;85.71;99244.09;5093822;28;8868;-57
2022/01/08 03:34:28;;;;;;;;;5.80;5.60;;;;;2.34;85.62;99231.13;5094248;28;8833;-56
2022/01/08 03:36:56;;;;;;;;;9.00;9.00;;;;;2.32;85.61;99234.78;5093449;28;8837;-57
2022/01/08 03:39:23;;;;;;;;;7.00;6.60;;;;;2.31;85.32;99236.56;5094545;28;8845;-57
2022/01/08 03:41:52;;;;;;;;;1.00;1.00;;;;;2.29;85.89;99241.03;5092946;28;8850;-57
2022/01/08 03:44:20;;;;;;;;;9.80;9.00;;;;;2.26;85.58;99233.34;5094006;28;9531;-57
2022/01/08 03:46:48;;;;;;;;;5.60;5.20;;;;;2.26;85.18;99241.22;5094077;28;8830;-57
2022/01/08 03:49:24;;;;;;;;;6.80;6.20;;;;;2.24;85.24;99243.09;5092406;28;8964;-56
2022/01/08 03:51:52;;;;;;;;;6.80;6.80;;;;;2.21;86.03;99243.25;5093823;28;8834;-56
2022/01/08 03:54:20;;;;;;;;;9.20;9.20;;;;;2.20;85.57;99241.56;5091774;28;8918;-57
2022/01/08 03:56:48;;;;;;;;;10.80;9.20;;;;;2.21;85.82;99238.00;5093274;28;8849;-56
2022/01/08 03:59:16;;;;;;;;;5.60;5.60;;;;;2.22;86.01;99238.88;5093990;28;8838;-57
2022/01/08 04:01:43;;;;;;;;;1.00;1.00;;;;;2.21;85.97;99248.50;5092830;28;8846;-57
2022/01/08 04:04:11;;;;;;;;;7.00;4.00;;;;;2.21;85.95;99240.63;5094090;28;8916;-57
2022/01/08 04:06:39;;;;;;;;;4.40;4.40;;;;;2.20;86.06;99259.13;5093620;28;8984;-57
2022/01/08 04:09:07;;;;;;;;;8.00;7.60;;;;;2.19;85.71;99262.69;5091939;28;8870;-57
2022/01/08 04:11:34;;;;;;;;;6.00;3.20;;;;;2.17;85.68;99261.91;5093401;28;8856;-57
2022/01/08 04:14:02;;;;;;;;;10.40;9.20;;;;;2.15;85.66;99267.25;5093251;28;8840;-57
2022/01/08 04:16:33;;;;;;;;;3.00;1.00;;;;;2.15;85.88;99269.91;5093674;28;8853;-56
2022/01/08 04:19:01;;;;;;;;;4.40;3.40;;;;;2.13;86.16;99278.78;5092204;28;8923;-57
2022/01/08 04:24:13;;;;;;;;;7.40;6.80;;;;;2.10;85.88;99286.81;5078339;28;8870;-56
2022/01/08 04:26:41;;;;;;;;;11.20;10.80;;;;;2.10;85.73;99300.81;5091677;28;8922;-57
2022/01/08 04:29:08;;;;;;;;;6.80;6.00;;;;;2.13;86.18;99300.63;5092490;28;8850;-56
2022/01/08 04:31:36;;;;;;;;;6.00;4.20;;;;;2.20;85.61;99298.50;5093240;28;8885;-56
2022/01/08 04:34:04;;;;;;;;;8.60;6.20;;;;;2.25;85.51;99305.19;5092140;28;8854;-57
2022/01/08 04:36:32;;;;;;;;;8.20;7.80;;;;;2.29;85.75;99308.50;5092670;28;8846;-57
2022/01/08 04:38:59;;;;;;;;;10.00;8.80;;;;;2.34;85.21;99314.34;5090832;28;8880;-57
2022/01/08 04:41:27;;;;;;;;;11.20;9.20;;;;;2.34;85.66;99311.72;5092691;28;9547;-57
2022/01/08 04:43:55;;;;;;;;;5.80;5.80;;;;;2.34;85.17;99325.69;5091292;28;8985;-57
2022/01/08 04:46:23;;;;;;;;;6.00;5.20;;;;;2.36;85.62;99315.09;5092730;28;8854;-56
2022/01/08 04:48:51;;;;;;;;;11.60;10.20;;;;;2.36;85.82;99318.56;5090417;28;8860;-57
2022/01/08 04:51:18;;;;;;;;;9.40;9.00;;;;;2.35;85.13;99324.75;5091758;28;8841;-57
2022/01/08 04:53:46;;;;;;;;;8.60;7.80;;;;;2.34;85.85;99325.69;5091432;28;8854;-57
2022/01/08 04:56:17;;;;;;;;;4.80;4.80;;;;;2.37;86.13;99328.16;5092484;28;8842;-57
2022/01/08 04:58:44;;;;;;;;;6.80;6.80;;;;;2.41;85.94;99331.44;5090890;28;8953;-56
2022/01/08 05:01:12;;;;;;;;;13.20;8.60;;;;;2.42;85.16;99335.78;5091258;28;8845;-57
2022/01/08 05:03:40;;;;;;;;;4.80;4.40;;;;;2.43;85.24;99340.09;5092828;28;8945;-56
2022/01/08 05:06:08;;;;;;;;;11.20;10.40;;;;;2.44;85.18;99333.88;5092665;28;8834;-57
2022/01/08 05:08:35;;;;;;;;;7.80;7.80;;;;;2.45;85.28;99338.22;5091527;28;8858;-57
2022/01/08 05:11:03;;;;;;;;;9.20;8.20;;;;;2.47;85.62;99341.59;5093165;28;9000;-57
2022/01/08 05:13:31;;;;;;;;;13.40;9.20;;;;;2.48;85.42;99340.66;5091178;28;8850;-57
2022/01/08 05:16:00;;;;;;;;;9.00;6.60;;;;;2.44;85.37;99337.34;5092716;28;8834;-57
2022/01/08 05:18:29;;;;;;;;;7.60;7.60;;;;;2.41;85.51;99334.91;5089792;28;8822;-57
2022/01/08 05:21:09;;;;;;;;;10.20;9.80;;;;;2.39;85.54;99339.41;5091809;28;8846;-57
2022/01/08 05:23:37;;;;;;;;;11.20;9.00;;;;;2.34;85.78;99333.56;5092549;28;8960;-57
2022/01/08 05:26:04;;;;;;;;;6.80;6.20;;;;;2.30;85.87;99346.94;5092166;28;8846;-57
2022/01/08 05:28:32;;;;;;;;;15.00;13.60;;;;;2.24;85.55;99352.53;5090063;28;8838;-57
2022/01/08 05:31:00;;;;;;;;;10.00;9.40;;;;;2.20;85.74;99340.53;5092572;28;8842;-57
2022/01/08 05:33:28;;;;;;;;;10.40;9.60;;;;;2.15;85.98;99350.44;5091103;28;8861;-57
2022/01/08 05:35:56;;;;;;;;;9.00;8.60;;;;;2.11;85.98;99354.16;5090487;28;9635;-57
2022/01/08 05:38:23;;;;;;;;;6.60;6.40;;;;;2.07;86.13;99350.00;5089688;28;8880;-57
2022/01/08 05:40:51;;;;;;;;;14.20;12.20;;;;;2.04;86.50;99352.81;5090893;28;8838;-57
2022/01/08 05:43:19;;;;;;;;;8.80;7.20;;;;;2.00;86.24;99362.63;5092260;28;8869;-57
2022/01/08 05:45:48;;;;;;;;;8.80;8.60;;;;;1.97;86.04;99361.94;5091491;28;8838;-57
2022/01/08 05:48:15;;;;;;;;;7.60;6.80;;;;;1.92;85.59;99354.31;5090077;28;8857;-57
2022/01/08 05:50:43;;;;;;;;;9.80;9.00;;;;;1.89;86.29;99367.59;5090113;28;9649;-57
2022/01/08 05:53:11;;;;;;;;;9.00;9.00;;;;;1.86;86.60;99361.66;5089785;28;8854;-57
2022/01/08 05:55:39;;;;;;;;;14.20;12.00;;;;;1.83;86.39;99362.66;5090318;28;8838;-57
2022/01/08 05:58:06;;;;;;;;;10.80;10.80;;;;;1.80;86.48;99354.97;5091268;28;8980;-57
2022/01/08 06:00:34;;;;;;;;;14.60;13.60;;;;;1.79;86.22;99360.28;5090297;28;8996;-57
2022/01/08 06:03:02;;;;;;;;;10.80;9.60;;;;;1.78;86.32;99367.34;5090066;28;8924;-56
2022/01/08 06:05:30;;;;;;;;;10.80;10.40;;;;;1.77;86.41;99362.16;5090618;28;8871;-57
2022/01/08 06:07:58;;;;;;;;;17.40;15.20;;;;;1.76;86.39;99361.31;5090397;28;8879;-57
2022/01/08 06:10:25;;;;;;;;;7.40;6.80;;;;;1.76;86.62;99365.72;5090224;28;8972;-57
2022/01/08 06:12:53;;;;;;;;;15.20;14.40;;;;;1.77;86.57;99367.41;5089900;28;8866;-57
2022/01/08 06:15:21;;;;;;;;;8.80;8.20;;;;;1.76;87.12;99371.81;5091292;28;8842;-56
2022/01/08 06:17:53;;;;;;;;;11.80;10.80;;;;;1.75;86.52;99369.28;5090317;28;8870;-56
2022/01/08 06:20:21;;;;;;;;;9.20;8.60;;;;;1.73;86.35;99371.97;5090252;28;8830;-57
2022/01/08 06:22:49;;;;;;;;;7.20;5.20;;;;;1.74;86.73;99378.09;5089658;28;8830;-57
2022/01/08 06:25:17;;;;;;;;;12.80;9.80;;;;;1.73;86.55;99381.59;5089899;28;8831;-56
2022/01/08 06:27:44;;;;;;;;;15.60;12.80;;;;;1.72;86.72;99386.03;5090765;28;8888;-57
2022/01/08 06:30:12;;;;;;;;;20.00;19.20;;;;;1.73;86.70;99392.97;5089431;28;8861;-56
2022/01/08 06:32:40;;;;;;;;;10.00;9.40;;;;;1.72;86.32;99399.16;5089665;28;8895;-57
2022/01/08 06:35:08;;;;;;;;;13.80;12.80;;;;;1.71;86.96;99397.47;5090231;28;8834;-57
2022/01/08 06:37:36;;;;;;;;;8.80;8.20;;;;;1.72;86.96;99395.66;5090601;28;8911;-56
2022/01/08 06:40:03;;;;;;;;;4.00;2.60;;;;;1.72;86.70;99390.41;5090397;28;8870;-57
2022/01/08 06:42:31;;;;;;;;;14.80;13.00;;;;;1.70;86.36;99387.91;5089645;28;8842;-56
2022/01/08 06:44:59;;;;;;;;;7.80;6.80;;;;;1.70;86.54;99392.28;5091087;28;8884;-57
2022/01/08 06:47:27;;;;;;;;;7.80;6.20;;;;;1.67;86.52;99393.28;5090878;28;8854;-57
2022/01/08 06:49:55;;;;;;;;;10.40;9.00;;;;;1.66;86.29;99391.59;5088810;28;8895;-57
2022/01/08 06:52:23;;;;;;;;;12.80;10.40;;;;;1.66;86.33;99402.09;5090227;28;8850;-57
2022/01/08 06:54:51;;;;;;;;;6.00;4.80;;;;;1.65;86.23;99403.03;5089150;28;8856;-57
2022/01/08 06:57:23;;;;;;;;;10.20;9.80;;;;;1.65;86.50;99405.63;5088840;28;8841;-57
2022/01/08 06:59:50;;;;;;;;;15.60;12.00;;;;;1.62;86.83;99403.19;5089367;28;8838;-57
2022/01/08 07:02:18;;;;;;;;;10.60;10.00;;;;;1.62;86.57;99405.81;5088415;28;8854;-57
2022/01/08 07:04:46;;;;;;;;;13.40;12.80;;;;;1.64;86.32;99414.44;5090037;28;8864;-57
2022/01/08 07:07:14;;;;;;;;;10.00;9.80;;;;;1.65;86.55;99425.78;5088409;28;8984;-57
2022/01/08 07:09:41;;;;;;;;;12.20;12.20;;;;;1.65;87.20;99417.91;5088641;28;8980;-57
2022/01/08 07:12:09;;;;;;;;;8.80;8.40;;;;;1.67;87.05;99423.94;5089027;28;8856;-57
2022/01/08 07:14:37;;;;;;;;;8.60;8.20;;;;;1.67;86.71;99424.78;5089457;28;8854;-57
2022/01/08 07:17:05;;;;;;;;;9.20;8.20;;;;;1.69;86.72;99422.94;5086772;28;8853;-57
2022/01/08 07:19:33;;;;;;;;;13.00;12.00;;;;;1.71;86.48;99431.56;5087387;28;8826;-57
2022/01/08 07:22:01;;;;;;;;;7.00;6.60;;;;;1.75;86.92;99433.09;5086785;28;8907;-57
2022/01/08 07:24:29;;;;;;;;;6.00;5.20;;;;;1.75;86.39;99432.25;5088343;28;8837;-56
2022/01/08 07:26:57;;;;;;;;;9.40;9.40;;;;;1.80;87.03;99440.72;5086908;28;8881;-57
2022/01/08 07:29:24;;;;;;;;;8.60;7.00;;;;;1.86;85.91;99441.25;5088013;28;8958;-57
2022/01/08 07:31:52;;;;;;;;;7.60;7.40;;;;;1.90;86.67;99440.16;5087044;28;8872;-57
2022/01/08 07:34:20;;;;;;;;;9.00;6.20;;;;;1.92;86.39;99446.19;5088194;28;8841;-57
2022/01/08 07:36:48;;;;;;;;;5.80;5.80;;;;;1.93;86.46;99447.03;5086391;28;8838;-57
2022/01/08 07:39:15;;;;;;;;;1.40;1.00;;;;;1.92;86.56;99448.81;5088583;28;8972;-57
2022/01/08 07:41:43;;;;;;;;;8.20;8.20;;;;;1.93;86.13;99458.38;5086845;28;8854;-57
2022/01/08 07:44:11;;;;;;;;;7.80;7.00;;;;;1.95;86.29;99448.66;5090067;28;8838;-57
2022/01/08 07:46:39;;;;;;;;;6.40;6.40;;;;;1.99;86.45;99455.41;5092243;28;8842;-57
2022/01/08 07:49:06;;;;;;;;;12.40;12.20;;;;;2.06;86.51;99451.53;5090406;28;8850;-57
2022/01/08 07:51:34;;;;;;;;;9.40;9.00;;;;;2.12;86.37;99453.00;5091706;28;8850;-57
2022/01/08 07:54:02;;;;;;;;;10.80;7.80;;;;;2.18;86.14;99455.28;5090554;28;8842;-56
2022/01/08 07:56:30;;;;;;;;;14.20;11.60;;;;;2.21;86.07;99447.25;5091054;28;8980;-56
2022/01/08 07:58:57;;;;;;;;;3.80;2.60;;;;;2.23;85.73;99446.25;5088769;28;8849;-56
2022/01/08 08:01:25;;;;;;;;;2.00;1.80;;;;;2.22;85.19;99447.19;5091254;28;9019;-57
2022/01/08 08:03:53;;;;;;;;;7.80;7.00;;;;;2.25;85.88;99454.03;5090124;28;8826;-57
2022/01/08 08:06:21;;;;;;;;;8.20;7.40;;;;;2.28;85.47;99461.75;5088651;28;8854;-57
2022/01/08 08:08:49;;;;;;;;;6.40;5.80;;;;;2.29;85.56;99445.88;5090044;28;8955;-57
2022/01/08 08:11:16;;;;;;;;;6.00;6.00;;;;;2.31;85.71;99448.44;5090510;28;8845;-57
2022/01/08 08:13:44;;;;;;;;;6.00;6.00;;;;;2.29;85.50;99451.16;5089913;28;8909;-56
2022/01/08 08:16:12;;;;;;;;;4.00;4.00;;;;;2.26;85.15;99453.94;5091925;28;8976;-57
2022/01/08 08:18:40;;;;;;;;;8.00;7.60;;;;;2.27;86.13;99442.50;5091132;28;8846;-56
2022/01/08 08:21:08;;;;;;;;;9.20;7.00;;;;;2.28;85.85;99444.19;5089787;28;8994;-57
2022/01/08 08:23:35;;;;;;;;;7.00;7.00;;;;;2.31;85.44;99436.16;5090959;28;9491;-57
2022/01/08 08:26:03;;;;;;;;;9.20;8.60;;;;;2.31;85.75;99438.81;5088774;28;8862;-57
2022/01/08 08:28:31;;;;;;;;;8.00;7.20;;;;;2.32;85.81;99434.38;5089670;28;8846;-57
2022/01/08 08:30:59;;;;;;;;;3.40;3.40;;;;;2.32;85.76;99437.00;5089714;28;8931;-57
2022/01/08 08:33:27;;;;;;;;;8.20;7.00;;;;;2.32;85.29;99437.88;5089263;28;8838;-56
2022/01/08 08:35:55;;;;;;;;;8.20;8.20;;;;;2.29;85.34;99440.63;5090188;28;8844;-57
2022/01/08 08:38:22;;;;;;;;;9.20;6.80;;;;;2.30;85.87;99447.63;5088625;28;8868;-56
2022/01/08 08:40:51;;;;;;;;;7.60;6.80;;;;;2.30;85.76;99447.63;5087883;28;8850;-57
2022/01/08 08:43:19;;;;;;;;;11.20;10.20;;;;;2.34;85.89;99441.25;5089063;28;8967;-57
2022/01/08 08:45:47;;;;;;;;;8.20;6.80;;;;;2.39;85.61;99436.59;5088882;28;8861;-57
2022/01/08 08:48:15;;;;;;;;;6.80;6.80;;;;;2.45;85.83;99431.00;5088068;28;8974;-57
2022/01/08 08:50:43;;;;;;;;;10.00;8.80;;;;;2.56;85.48;99428.63;5088818;28;8834;-57
2022/01/08 08:53:11;;;;;;;;;7.40;7.40;;;;;2.68;85.59;99416.59;5088501;28;9702;-57
2022/01/08 08:55:39;;;;;;;;;12.60;10.00;;;;;2.78;84.96;99417.75;5087345;28;8996;-57
2022/01/08 08:58:06;;;;;;;;;10.00;7.80;;;;;2.86;84.77;99411.13;5087446;28;8864;-57
2022/01/08 09:00:34;;;;;;;;;7.00;6.20;;;;;2.88;84.61;99411.88;5085908;28;8907;-56
2022/01/08 09:03:02;;;;;;;;;10.00;10.00;;;;;2.87;84.76;99410.19;5085762;28;9507;-57
2022/01/08 09:05:30;;;;;;;;;9.40;7.00;;;;;2.83;84.96;99413.94;5084272;28;8992;-57
2022/01/08 09:07:58;;;;;;;;;8.60;6.00;;;;;2.82;84.61;99419.28;5084824;28;8886;-57
2022/01/08 09:10:26;;;;;;;;;3.20;3.20;;;;;2.79;85.02;99428.19;5085470;28;8876;-57
2022/01/08 09:12:53;;;;;;;;;3.40;3.00;;;;;2.79;84.88;99411.59;5086921;28;8857;-57
2022/01/08 09:15:24;;;;;;;;;11.80;10.40;;;;;2.78;85.10;99417.75;5083688;28;8868;-57
2022/01/08 09:17:52;;;;;;;;;10.00;6.80;;;;;2.77;84.88;99408.16;5082715;28;8845;-57
2022/01/08 09:20:20;;;;;;;;;9.00;6.60;;;;;2.79;85.29;99401.91;5082930;28;8857;-57
2022/01/08 09:22:48;;;;;;;;;9.20;9.20;;;;;2.77;84.87;99400.28;5083818;28;8845;-57
2022/01/08 09:25:15;;;;;;;;;11.60;9.40;;;;;2.81;84.92;99393.94;5084310;28;9002;-57
2022/01/08 09:27:43;;;;;;;;;9.00;8.60;;;;;2.90;84.77;99401.28;5085369;28;8841;-57
2022/01/08 09:30:11;;;;;;;;;9.80;8.40;;;;;2.98;85.12;99404.31;5085996;28;8838;-57
2022/01/08 09:32:39;;;;;;;;;7.00;6.40;;;;;3.07;85.10;99414.31;5087073;28;8854;-58
2022/01/08 09:35:06;;;;;;;;;5.40;4.00;;;;;3.18;84.76;99415.38;5085097;28;8857;-57
2022/01/08 09:37:37;;;;;;;;;8.60;8.60;;;;;3.24;84.17;99422.91;5085851;28;8984;-57
2022/01/08 09:40:05;;;;;;;;;3.40;3.20;;;;;3.30;84.32;99412.03;5084321;28;8874;-57
2022/01/08 09:42:33;;;;;;;;;10.00;9.00;;;;;3.33;84.06;99411.84;5084422;28;9835;-58
2022/01/08 09:45:01;;;;;;;;;6.80;5.60;;;;;3.35;84.47;99404.72;5084839;28;8826;-58
2022/01/08 09:47:28;;;;;;;;;7.20;7.20;;;;;3.36;84.20;99409.06;5084888;28;8846;-58
2022/01/08 09:49:56;;;;;;;;;9.40;8.80;;;;;3.43;83.88;99402.50;5085323;28;9012;-58
2022/01/08 09:52:24;;;;;;;;;7.80;6.60;;;;;3.50;83.56;99401.19;5083656;28;8838;-57
2022/01/08 09:54:52;;;;;;;;;9.40;6.00;;;;;3.57;84.03;99394.59;5084919;28;8977;-57
2022/01/08 09:57:20;;;;;;;;;1.60;1.00;;;;;3.75;83.11;99386.44;5082720;28;8850;-57
2022/01/08 09:59:48;;;;;;;;;10.40;9.00;;;;;4.00;83.18;99388.41;5083402;28;9107;-57
2022/01/08 10:02:16;;;;;;;;;6.80;6.60;;;;;4.04;82.99;99384.66;5082587;28;8935;-57
2022/01/08 10:04:43;;;;;;;;;9.60;9.20;;;;;4.09;82.58;99386.06;5081227;28;8960;-58
2022/01/08 10:07:15;;;;;;;;;7.00;6.80;;;;;4.13;82.24;99384.91;5079492;28;8972;-58
2022/01/08 10:09:42;;;;;;;;;11.20;9.60;;;;;4.18;82.35;99379.38;5082878;28;8850;-57
2022/01/08 10:12:11;;;;;;;;;6.40;6.40;;;;;4.30;82.12;99381.22;5083912;28;8850;-57
2022/01/08 10:17:13;;;;;;;;;8.00;8.00;;;;;4.33;82.21;99378.41;5082258;28;8841;-57
2022/01/08 10:17:27;;;;;;;;;5.20;5.20;;;;;4.27;82.42;99382.25;5079429;28;8877;-57
2022/01/08 10:19:55;;;;;;;;;6.20;6.00;;;;;4.25;82.49;99381.50;5079795;28;8823;-58
2022/01/08 10:22:22;;;;;;;;;9.40;9.20;;;;;4.21;82.18;99379.16;5081472;28;8833;-57
2022/01/08 10:24:50;;;;;;;;;1.00;1.00;;;;;4.20;82.60;99372.22;5081707;28;8834;-57
2022/01/08 10:27:18;;;;;;;;;6.40;2.20;;;;;4.20;82.60;99366.94;5082265;28;8862;-57
2022/01/08 10:29:46;;;;;;;;;7.80;7.80;;;;;4.26;82.11;99348.13;5080454;28;8888;-57
2022/01/08 10:32:14;;;;;;;;;8.60;7.00;;;;;4.28;82.32;99349.69;5083491;28;8977;-57
2022/01/08 10:34:42;;;;;;;;;6.20;5.20;;;;;4.24;82.47;99344.72;5082542;28;9783;-57
2022/01/08 10:37:10;;;;;;;;;8.20;6.80;;;;;4.21;82.65;99337.88;5081227;28;8854;-58
2022/01/08 10:39:38;;;;;;;;;6.00;6.00;;;;;4.18;82.31;99342.50;5080159;28;8863;-57
2022/01/08 10:42:06;;;;;;;;;7.40;6.00;;;;;4.14;82.18;99333.06;5082769;28;9044;-57
2022/01/08 10:44:34;;;;;;;;;8.20;6.80;;;;;4.15;82.48;99340.91;5080104;28;8872;-58
2022/01/08 10:47:02;;;;;;;;;11.60;10.00;;;;;4.21;82.49;99327.34;5078590;28;8858;-57
2022/01/08 10:49:31;;;;;;;;;7.00;7.00;;;;;4.32;82.08;99322.22;5080262;28;8841;-57
2022/01/08 10:52:00;;;;;;;;;3.20;3.20;;;;;4.35;82.17;99311.47;5080191;28;8846;-57
2022/01/08 10:54:28;;;;;;;;;5.20;4.00;;;;;4.37;81.89;99314.00;5080896;28;8860;-58
2022/01/08 10:56:57;;;;;;;;;10.80;9.20;;;;;4.34;82.21;99308.94;5081042;28;8992;-58
2022/01/08 10:59:25;;;;;;;;;15.40;13.40;;;;;4.33;82.30;99300.19;5078695;28;8854;-57
2022/01/08 11:01:52;;;;;;;;;4.80;4.80;;;;;4.31;81.91;99288.03;5080183;28;9532;-57
2022/01/08 11:04:20;;;;;;;;;8.20;7.40;;;;;4.28;82.47;99283.00;5081017;28;8842;-57
2022/01/08 11:06:48;;;;;;;;;7.00;6.80;;;;;4.30;82.33;99281.09;5082122;28;9532;-57
2022/01/08 11:09:16;;;;;;;;;7.00;6.80;;;;;4.28;82.01;99275.09;5080610;28;8870;-57
2022/01/08 11:11:50;;;;;;;;;6.20;4.80;;;;;4.27;82.11;99284.75;5082684;28;8850;-57
2022/01/08 11:14:34;;;;;;;;;8.60;7.80;;;;;4.23;82.28;99274.53;5078898;28;8987;-57
2022/01/08 11:17:01;;;;;;;;;3.60;3.00;;;;;4.20;82.35;99269.47;5079888;28;8919;-57
2022/01/08 11:19:29;;;;;;;;;9.80;8.60;;;;;4.22;82.07;99257.03;5083512;28;9487;-57
2022/01/08 11:21:57;;;;;;;;;9.40;8.60;;;;;4.24;81.99;99255.13;5080676;28;8970;-57
2022/01/08 11:24:25;;;;;;;;;3.80;3.80;;;;;4.28;81.76;99262.72;5084055;28;8842;-57
2022/01/08 11:26:53;;;;;;;;;5.80;5.80;;;;;4.33;82.15;99244.03;5086538;28;8855;-58
2022/01/08 11:29:21;;;;;;;;;8.20;7.00;;;;;4.36;81.40;99228.84;5084584;28;8845;-58
2022/01/08 11:31:48;;;;;;;;;10.60;9.20;;;;;4.45;81.45;99228.25;5080426;28;8865;-57
2022/01/08 11:34:17;;;;;;;;;11.60;9.80;;;;;4.60;80.74;99231.63;5082048;28;8864;-57
2022/01/08 11:36:48;;;;;;;;;5.60;5.20;;;;;4.73;80.63;99224.59;5082814;28;8869;-57
2022/01/08 11:39:16;;;;;;;;;3.40;1.40;;;;;4.90;80.07;99205.81;5082162;28;8884;-58
2022/01/08 11:41:43;;;;;;;;;7.00;6.00;;;;;5.43;78.89;99193.22;5083613;28;8869;-58
2022/01/08 11:44:11;;;;;;;;;3.60;3.40;;;;;5.78;77.92;99180.16;5083098;28;8994;-59
2022/01/08 11:46:39;;;;;;;;;11.00;9.60;;;;;5.63;77.68;99178.59;5079716;28;8872;-59
2022/01/08 11:49:06;;;;;;;;;11.00;7.40;;;;;5.43;77.87;99164.19;5083926;28;8862;-58
2022/01/08 11:51:35;;;;;;;;;4.00;3.80;;;;;5.49;77.32;99162.91;5082230;28;8876;-58
2022/01/08 11:54:04;;;;;;;;;3.40;3.20;;;;;5.46;77.52;99161.31;5084867;28;9535;-57
2022/01/08 11:56:32;;;;;;;;;7.60;7.60;;;;;5.43;77.82;99172.13;5084950;28;8857;-57
2022/01/08 11:59:00;;;;;;;;;3.00;3.00;;;;;5.40;77.52;99176.78;5082779;28;8842;-58
2022/01/08 12:01:28;;;;;;;;;4.00;4.00;;;;;5.37;77.50;99172.53;5083583;28;8988;-57
2022/01/08 12:03:56;;;;;;;;;5.80;4.80;;;;;5.28;77.00;99162.66;5084368;28;8911;-58
2022/01/08 12:06:26;;;;;;;;;3.00;3.00;;;;;5.14;76.77;99159.28;5081803;28;10012;-57
2022/01/08 12:08:56;;;;;;;;;3.20;3.00;;;;;4.99;77.68;99161.19;5082838;28;8876;-58
2022/01/08 12:11:24;;;;;;;;;1.40;1.40;;;;;4.94;77.29;99162.47;5081965;28;8970;-57